Time;durP1;ratioP1;P1;durP2;ratioP2;P2;SDS_P1;SDS_P2;PMS_P1;PMS_P2;Temp;Humidity;BMP_temperature;BMP_pressure;BME280_temperature;BME280_humidity;BME280_pressure;Samples;Min_cycle;Max_cycle;Signal;HPM_P1;HPM_P2
2024/01/03 00:01:59;;;;;;;7.30;3.80;;;;;;;7.75;72.58;97183.37;232074;202;150693;-58
2024/01/03 00:07:05;;;;;;;5.80;3.70;;;;;;;7.78;72.47;97178.75;232063;202;137162;-59
2024/01/03 00:12:14;;;;;;;4.20;2.90;;;;;;;7.79;72.73;97169.14;231823;202;138957;-60
2024/01/03 00:17:19;;;;;;;4.40;2.50;;;;;;;7.80;72.78;97165.88;231815;198;150159;-58
2024/01/03 00:22:22;;;;;;;4.30;3.10;;;;;;;7.81;72.76;97155.84;231794;198;137602;-60
2024/01/03 00:27:36;;;;;;;5.00;3.20;;;;;;;7.86;72.77;97152.45;231590;202;135799;-59
2024/01/03 00:32:39;;;;;;;8.70;4.00;;;;;;;7.90;72.67;97154.09;232295;197;150360;-60
2024/01/03 00:37:52;;;;;;;9.30;4.90;;;;;;;7.99;72.22;97147.75;232353;203;137857;-60
2024/01/03 00:42:55;;;;;;;8.40;5.10;;;;;;;8.02;71.73;97143.55;232215;204;136874;-60
2024/01/03 00:47:58;;;;;;;8.90;4.10;;;;;;;8.02;71.62;97138.13;232094;204;150812;-60
2024/01/03 00:53:02;;;;;;;9.00;4.70;;;;;;;8.02;71.62;97128.27;232326;200;136983;-58
2024/01/03 00:58:05;;;;;;;8.70;4.50;;;;;;;7.99;71.70;97124.92;232333;197;136971;-59
2024/01/03 01:03:09;;;;;;;9.30;4.70;;;;;;;7.91;71.73;97111.52;232410;204;150010;-60
2024/01/03 01:08:13;;;;;;;7.50;3.80;;;;;;;7.84;71.96;97106.23;232181;201;137180;-57
2024/01/03 01:13:19;;;;;;;7.20;3.70;;;;;;;7.84;72.12;97100.88;232410;197;136677;-60
2024/01/03 01:18:22;;;;;;;8.30;4.00;;;;;;;7.89;72.16;97094.02;232439;197;149280;-60
2024/01/03 01:23:26;;;;;;;5.40;3.30;;;;;;;7.89;72.06;97086.58;232288;204;136571;-60
2024/01/03 01:28:29;;;;;;;5.30;3.20;;;;;;;7.87;72.14;97075.25;232356;204;137452;-60
2024/01/03 01:33:32;;;;;;;4.40;2.80;;;;;;;7.90;72.14;97067.22;232169;197;149368;-58
2024/01/03 01:38:36;;;;;;;5.40;3.00;;;;;;;7.94;71.91;97060.04;232222;203;136463;-59
2024/01/03 01:43:39;;;;;;;5.40;2.60;;;;;;;7.98;72.05;97045.94;232335;204;135997;-59
2024/01/03 01:48:43;;;;;;;4.90;2.90;;;;;;;7.99;72.00;97038.60;232371;198;150000;-58
2024/01/03 01:53:47;;;;;;;4.80;2.40;;;;;;;7.99;72.32;97029.55;232428;197;136617;-59
2024/01/03 01:58:50;;;;;;;5.10;2.70;;;;;;;8.01;72.25;97021.13;232328;203;136053;-59
2024/01/03 02:03:54;;;;;;;5.30;3.30;;;;;;;7.98;72.36;97015.54;232058;198;152532;-57
2024/01/03 02:08:58;;;;;;;5.30;3.30;;;;;;;7.91;72.71;97009.23;232271;204;139045;-59
2024/01/03 02:14:01;;;;;;;5.20;3.60;;;;;;;7.85;73.00;97001.59;232384;197;137941;-59
2024/01/03 02:19:04;;;;;;;5.60;3.70;;;;;;;7.82;73.32;96998.88;232421;197;149526;-58
2024/01/03 02:24:08;;;;;;;5.70;3.90;;;;;;;7.84;73.50;96990.23;232197;202;136787;-60
2024/01/03 02:29:11;;;;;;;2.90;2.00;;;;;;;7.89;73.35;96986.61;232328;204;137544;-58
2024/01/03 02:34:14;;;;;;;3.20;1.80;;;;;;;7.94;72.80;96986.23;232398;201;149689;-58
2024/01/03 02:39:17;;;;;;;2.70;1.60;;;;;;;7.98;72.68;96980.77;232357;204;137179;-59
2024/01/03 02:44:23;;;;;;;2.60;1.70;;;;;;;7.99;72.84;96974.11;232097;202;136714;-60
2024/01/03 02:49:26;;;;;;;2.50;1.40;;;;;;;8.02;72.78;96967.50;232416;196;150950;-59
2024/01/03 02:54:30;;;;;;;1.60;1.00;;;;;;;8.04;72.86;96957.45;232461;204;136102;-59
2024/01/03 02:59:33;;;;;;;1.40;0.80;;;;;;;8.08;72.83;96955.17;232340;204;137411;-59
2024/01/03 03:04:36;;;;;;;1.40;0.70;;;;;;;8.09;72.99;96945.98;232210;203;149892;-59
2024/01/03 03:09:40;;;;;;;1.90;0.90;;;;;;;8.08;73.13;96946.67;232217;197;140719;-60
2024/01/03 03:14:44;;;;;;;2.10;0.70;;;;;;;8.22;73.14;96946.71;232500;203;136732;-58
2024/01/03 03:19:47;;;;;;;1.40;0.80;;;;;;;8.39;72.91;96942.10;232404;204;149637;-61
2024/01/03 03:24:50;;;;;;;0.80;0.50;;;;;;;8.44;72.75;96928.65;232441;204;136134;-59
2024/01/03 03:29:54;;;;;;;0.90;0.60;;;;;;;8.43;72.75;96926.80;232323;201;136709;-59
2024/01/03 03:34:57;;;;;;;0.70;0.60;;;;;;;8.40;72.74;96925.56;232338;204;149527;-56
2024/01/03 03:40:00;;;;;;;0.90;0.60;;;;;;;8.41;72.76;96922.55;232460;201;136548;-58
2024/01/03 03:45:04;;;;;;;0.40;0.40;;;;;;;8.43;72.88;96922.36;232342;204;139972;-59
2024/01/03 03:50:07;;;;;;;42.80;33.10;;;;;;;8.44;73.12;96917.88;232377;197;150132;-61
2024/01/03 03:55:12;;;;;;;1.60;1.20;;;;;;;8.49;73.38;96910.51;232480;203;140848;-61
2024/01/03 04:00:16;;;;;;;218.30;156.00;;;;;;;8.60;73.19;96912.34;232384;204;137557;-60
2024/01/03 04:05:19;;;;;;;134.20;95.30;;;;;;;8.67;73.08;96911.07;232444;203;150716;-60
2024/01/03 04:10:22;;;;;;;3.00;2.30;;;;;;;8.67;73.13;96918.29;232319;204;136769;-60
2024/01/03 04:15:26;;;;;;;1.90;1.30;;;;;;;8.69;73.10;96911.88;232409;203;137003;-61
2024/01/03 04:20:33;;;;;;;1.30;0.80;;;;;;;8.67;73.07;96915.46;232363;204;149433;-60
2024/01/03 04:25:36;;;;;;;1.10;0.70;;;;;;;8.58;73.17;96914.00;232361;201;137818;-60
2024/01/03 04:30:39;;;;;;;1.10;0.60;;;;;;;8.56;73.48;96907.56;232481;200;136448;-61
2024/01/03 04:35:44;;;;;;;1.40;0.80;;;;;;;8.55;73.60;96909.63;232265;204;150509;-61
2024/01/03 04:40:47;;;;;;;1.60;1.00;;;;;;;8.59;73.66;96921.84;232268;204;137921;-62
2024/01/03 04:45:50;;;;;;;1.20;0.80;;;;;;;8.66;73.59;96918.17;232370;200;137040;-62
2024/01/03 04:50:53;;;;;;;2.80;0.90;;;;;;;8.64;73.51;96915.40;232269;201;150663;-61
2024/01/03 04:55:57;;;;;;;1.80;0.80;;;;;;;8.62;73.62;96917.35;232328;201;137152;-62
2024/01/03 05:01:00;;;;;;;1.30;0.90;;;;;;;8.66;73.59;96918.23;232414;204;136568;-61
2024/01/03 05:06:03;;;;;;;1.80;0.90;;;;;;;8.68;73.51;96919.92;232317;204;149975;-61
2024/01/03 05:11:07;;;;;;;3.20;1.00;;;;;;;8.71;73.50;96922.52;232407;200;139402;-61
2024/01/03 05:16:10;;;;;;;2.30;1.10;;;;;;;8.72;73.48;96922.04;232270;197;139085;-61
2024/01/03 05:21:13;;;;;;;2.20;1.10;;;;;;;8.74;73.41;96925.04;232240;204;149673;-60
2024/01/03 05:26:17;;;;;;;2.30;1.40;;;;;;;8.76;73.35;96924.54;232375;204;136875;-62
2024/01/03 05:31:20;;;;;;;1.60;1.20;;;;;;;8.84;73.37;96927.70;232551;204;136927;-62
2024/01/03 05:36:23;;;;;;;1.70;1.10;;;;;;;8.84;73.44;96923.48;232245;198;150042;-60
2024/01/03 05:41:26;;;;;;;1.90;1.40;;;;;;;8.86;73.76;96927.96;232295;202;137669;-61
2024/01/03 05:51:22;;;;;;;1.40;1.10;;;;;;;8.86;74.64;96926.48;229814;209;734728;-60
2024/01/03 05:56:27;;;;;;;4.10;1.30;;;;;;;8.90;75.02;96925.92;231105;207;136575;-61
2024/01/03 06:01:30;;;;;;;3.60;1.70;;;;;;;9.01;75.35;96933.12;231216;202;137306;-60
2024/01/03 06:06:33;;;;;;;3.10;1.50;;;;;;;9.09;75.51;96936.13;231965;199;148038;-61
2024/01/03 06:11:37;;;;;;;3.30;1.50;;;;;;;9.18;75.68;96933.36;231767;199;136038;-58
2024/01/03 06:16:40;;;;;;;2.30;1.20;;;;;;;9.28;75.60;96936.02;231497;199;135692;-60
2024/01/03 06:21:43;;;;;;;3.10;1.70;;;;;;;9.31;75.59;96939.78;231839;199;147708;-60
2024/01/03 06:26:47;;;;;;;3.60;1.50;;;;;;;9.33;75.86;96944.91;232412;203;136705;-60
2024/01/03 06:31:50;;;;;;;3.40;1.50;;;;;;;9.31;76.10;96944.60;232587;203;135614;-61
2024/01/03 06:36:54;;;;;;;1.50;1.20;;;;;;;9.33;76.47;96944.05;232488;203;149550;-60
2024/01/03 06:41:57;;;;;;;2.80;1.60;;;;;;;9.39;76.45;96947.38;232191;201;136560;-60
2024/01/03 06:47:00;;;;;;;2.20;1.40;;;;;;;9.48;76.39;96942.65;232467;203;137993;-61
2024/01/03 06:52:03;;;;;;;3.10;1.60;;;;;;;9.51;76.16;96947.71;232346;200;151633;-60
2024/01/03 06:57:06;;;;;;;2.40;1.50;;;;;;;9.49;76.24;96959.56;232327;204;149389;-61
2024/01/03 07:02:10;;;;;;;3.30;1.60;;;;;;;9.51;76.27;96966.50;232464;204;135904;-59
2024/01/03 07:07:15;;;;;;;3.30;1.50;;;;;;;9.48;76.32;96970.22;232464;201;149303;-60
2024/01/03 07:12:19;;;;;;;2.20;1.10;;;;;;;9.54;76.37;96974.71;232294;201;136573;-60
2024/01/03 07:17:22;;;;;;;4.70;1.60;;;;;;;9.64;76.37;96980.86;232370;196;136573;-59
2024/01/03 07:22:26;;;;;;;2.10;1.30;;;;;;;9.80;76.26;96978.73;232320;204;151056;-60
2024/01/03 07:27:29;;;;;;;2.40;1.60;;;;;;;9.89;75.95;96982.67;232337;201;137079;-59
2024/01/03 07:32:32;;;;;;;3.60;1.70;;;;;;;9.89;75.77;96984.45;232303;201;136949;-60
2024/01/03 07:37:36;;;;;;;5.40;1.90;;;;;;;9.90;75.79;96987.34;232369;201;150172;-59
2024/01/03 07:42:39;;;;;;;3.30;1.60;;;;;;;9.95;75.93;96982.21;232217;204;136811;-60
2024/01/03 07:47:42;;;;;;;3.60;1.70;;;;;;;10.04;75.93;96974.02;232396;203;137511;-60
2024/01/03 07:52:45;;;;;;;3.20;1.60;;;;;;;10.17;75.87;96977.20;232310;204;149677;-61
2024/01/03 07:57:48;;;;;;;2.30;1.60;;;;;;;10.30;75.70;96987.54;232150;197;138850;-58
2024/01/03 08:02:52;;;;;;;2.50;1.50;;;;;;;10.40;75.49;96983.73;232392;204;137687;-59
2024/01/03 08:07:55;;;;;;;6.50;2.10;;;;;;;10.45;75.30;96991.25;232293;201;150247;-56
2024/01/03 08:12:58;;;;;;;5.20;1.90;;;;;;;10.45;75.17;96993.73;232350;200;136957;-60
2024/01/03 08:18:02;;;;;;;4.40;2.60;;;;;;;10.45;74.93;96993.91;232024;203;136456;-60
2024/01/03 08:23:06;;;;;;;113.90;82.30;;;;;;;10.51;74.63;96993.89;232241;198;149895;-61
2024/01/03 08:28:09;;;;;;;4.70;2.50;;;;;;;10.59;74.56;96991.48;232122;197;137821;-64
2024/01/03 08:33:13;;;;;;;2.20;1.30;;;;;;;10.62;74.06;96996.54;232372;201;137678;-61
2024/01/03 08:38:16;;;;;;;1.80;1.20;;;;;;;10.64;73.93;97007.00;231967;197;150683;-61
2024/01/03 08:43:19;;;;;;;4.20;1.20;;;;;;;10.68;73.69;97009.31;232407;203;136757;-60
2024/01/03 08:48:23;;;;;;;3.60;0.90;;;;;;;10.63;73.51;97024.95;232079;197;136861;-61
2024/01/03 08:53:26;;;;;;;1.90;1.10;;;;;;;10.70;73.36;97028.29;232095;204;149979;-61
2024/01/03 08:58:30;;;;;;;4.30;1.20;;;;;;;10.73;72.92;97035.61;232134;204;137266;-59
2024/01/03 09:03:35;;;;;;;3.70;1.40;;;;;;;10.81;72.69;97029.34;232209;204;137495;-60
2024/01/03 09:08:38;;;;;;;2.10;1.20;;;;;;;10.88;72.42;97029.05;232197;200;150195;-61
2024/01/03 09:13:42;;;;;;;0.70;0.70;;;;;;;10.85;72.31;97028.43;232172;204;136550;-63
2024/01/03 09:18:47;;;;;;;2.90;1.10;;;;;;;10.85;71.94;97033.91;232259;197;138265;-61
2024/01/03 09:23:51;;;;;;;4.60;1.50;;;;;;;10.83;71.81;97037.09;232062;198;149605;-60
2024/01/03 09:28:54;;;;;;;10.50;5.90;;;;;;;10.97;72.27;97035.11;231963;197;136824;-57
2024/01/03 09:33:58;;;;;;;4.10;1.60;;;;;;;11.13;71.39;97033.02;231757;204;140121;-58
2024/01/03 09:39:02;;;;;;;2.30;1.40;;;;;;;11.13;70.65;97032.51;232248;204;151233;-58
2024/01/03 09:44:06;;;;;;;3.50;1.40;;;;;;;11.16;70.39;97035.38;232018;201;139181;-60
2024/01/03 09:49:10;;;;;;;2.20;1.30;;;;;;;11.17;70.25;97042.91;232347;204;138508;-59
2024/01/03 09:54:14;;;;;;;3.10;1.20;;;;;;;11.22;69.94;97049.86;232137;201;149683;-60
2024/01/03 09:59:18;;;;;;;1.80;1.20;;;;;;;11.30;69.64;97049.05;232031;197;136908;-61
2024/01/03 10:04:22;;;;;;;2.60;1.20;;;;;;;11.37;69.38;97049.46;232008;202;137533;-63
2024/01/03 10:09:39;;;;;;;3.10;1.20;;;;;;;11.42;68.69;97050.27;232140;197;149878;-59
2024/01/03 10:14:43;;;;;;;3.00;1.30;;;;;;;11.53;67.95;97048.08;232177;197;136449;-60
2024/01/03 10:19:47;;;;;;;1.80;1.20;;;;;;;11.58;67.50;97051.89;232012;199;136917;-62
2024/01/03 10:24:50;;;;;;;2.00;1.40;;;;;;;11.65;66.92;97049.56;232097;198;149721;-61
2024/01/03 10:29:53;;;;;;;1.90;1.10;;;;;;;11.75;66.22;97053.77;231771;204;136387;-57
2024/01/03 10:35:15;;;;;;;2.40;1.30;;;;;;;11.87;65.98;97054.41;232119;197;137250;-56
2024/01/03 10:40:18;;;;;;;3.10;1.00;;;;;;;12.12;65.18;97063.09;232177;200;149593;-60
2024/01/03 10:45:22;;;;;;;2.10;0.90;;;;;;;12.17;64.21;97068.94;232070;204;136559;-61
2024/01/03 10:50:25;;;;;;;3.40;1.10;;;;;;;12.17;64.07;97063.15;232060;201;136696;-59
2024/01/03 10:55:41;;;;;;;3.60;1.40;;;;;;;12.20;64.44;97054.84;232170;204;150188;-57
2024/01/03 11:01:20;;;;;;;2.30;1.20;;;;;;;12.21;63.90;97044.95;232221;201;137468;-58
2024/01/03 11:06:49;;;;;;;1.50;0.90;;;;;;;12.16;63.24;97044.03;231867;201;137450;-58
2024/01/03 11:12:14;;;;;;;2.90;1.00;;;;;;;12.15;63.35;97035.93;232135;200;149561;-59
2024/01/03 11:17:33;;;;;;;2.30;1.10;;;;;;;12.20;62.93;97031.34;232130;204;136820;-59
2024/01/03 11:23:04;;;;;;;1.40;0.80;;;;;;;12.22;62.54;97042.20;232079;204;139781;-62
2024/01/03 11:28:35;;;;;;;5.10;2.70;;;;;;;12.29;62.16;97042.84;232091;197;149610;-59
2024/01/03 11:33:39;;;;;;;2.70;1.40;;;;;;;12.25;61.83;97043.48;232231;201;137340;-62
2024/01/03 11:38:46;;;;;;;1.90;1.10;;;;;;;12.13;62.16;97043.27;232082;204;137090;-61
2024/01/03 11:43:49;;;;;;;2.30;1.20;;;;;;;12.15;62.55;97027.96;232006;204;150044;-63
2024/01/03 11:48:52;;;;;;;2.60;1.20;;;;;;;12.13;62.07;97039.52;232106;198;137760;-61
2024/01/03 11:54:00;;;;;;;2.50;1.20;;;;;;;12.10;61.89;97037.36;232216;204;136908;-60
2024/01/03 11:59:04;;;;;;;4.20;1.20;;;;;;;12.06;61.55;97040.95;232127;198;150114;-61
2024/01/03 12:04:10;;;;;;;1.50;1.10;;;;;;;12.03;61.57;97035.93;232247;204;137792;-61
2024/01/03 12:09:14;;;;;;;3.10;1.30;;;;;;;12.03;61.44;97040.64;232135;202;138086;-60
2024/01/03 12:14:18;;;;;;;2.70;1.40;;;;;;;12.06;61.38;97041.65;232140;203;150377;-59
2024/01/03 12:19:26;;;;;;;4.10;1.40;;;;;;;12.07;61.05;97037.46;232114;204;137057;-60
2024/01/03 12:24:39;;;;;;;4.30;1.20;;;;;;;12.03;61.16;97039.45;232134;198;139104;-58
2024/01/03 12:29:42;;;;;;;5.40;1.50;;;;;;;12.02;61.08;97039.59;232021;198;149330;-59
2024/01/03 12:34:48;;;;;;;3.20;1.40;;;;;;;12.02;60.50;97043.33;232066;200;137231;-61
2024/01/03 12:39:51;;;;;;;5.10;1.40;;;;;;;12.00;61.03;97041.73;232109;201;137567;-57
2024/01/03 12:44:54;;;;;;;3.10;1.30;;;;;;;11.99;61.24;97035.94;232146;204;149323;-58
2024/01/03 12:49:57;;;;;;;3.00;1.10;;;;;;;11.99;60.80;97044.29;232274;201;138014;-60
2024/01/03 12:55:03;;;;;;;4.40;1.40;;;;;;;11.96;60.74;97041.77;232220;204;137641;-56
2024/01/03 13:00:07;;;;;;;2.40;1.30;;;;;;;11.96;60.67;97044.80;232056;197;149724;-57
2024/01/03 13:05:13;;;;;;;4.00;1.40;;;;;;;12.03;60.63;97045.36;232118;201;137311;-56
2024/01/03 13:10:17;;;;;;;5.90;1.60;;;;;;;12.09;60.28;97044.21;232065;204;136805;-59
2024/01/03 13:15:21;;;;;;;4.60;1.50;;;;;;;12.15;60.31;97049.80;231982;197;150335;-61
2024/01/03 13:20:25;;;;;;;3.60;1.50;;;;;;;12.22;60.15;97053.38;232290;201;137400;-61
2024/01/03 13:25:28;;;;;;;6.50;1.80;;;;;;;12.28;59.81;97057.93;232279;204;136429;-62
2024/01/03 13:30:32;;;;;;;5.10;1.80;;;;;;;12.28;59.20;97058.23;232049;198;149815;-57
2024/01/03 13:35:35;;;;;;;6.30;1.50;;;;;;;12.27;59.14;97051.92;232014;198;136391;-61
2024/01/03 13:40:40;;;;;;;5.00;2.10;;;;;;;12.25;59.27;97059.67;232058;204;137069;-59
2024/01/03 13:45:43;;;;;;;2.70;1.40;;;;;;;12.21;58.91;97065.73;232117;200;150256;-61
2024/01/03 13:50:46;;;;;;;3.00;1.60;;;;;;;12.14;59.30;97065.02;231809;201;140261;-52
2024/01/03 13:55:49;;;;;;;3.40;1.40;;;;;;;12.04;60.15;97072.86;232287;204;139488;-60
2024/01/03 14:00:53;;;;;;;3.50;1.60;;;;;;;11.98;60.22;97077.80;232282;204;149715;-61
2024/01/03 14:05:57;;;;;;;5.20;1.60;;;;;;;11.92;60.39;97088.52;232146;204;137344;-59
2024/01/03 14:11:04;;;;;;;2.70;1.70;;;;;;;11.83;61.09;97093.08;231969;204;136620;-55
2024/01/03 14:16:08;;;;;;;4.60;1.70;;;;;;;11.77;63.17;97090.39;232083;200;150023;-60
2024/01/03 14:21:11;;;;;;;4.90;1.80;;;;;;;11.84;63.38;97087.02;232052;198;137695;-62
2024/01/03 14:26:15;;;;;;;3.60;1.70;;;;;;;11.80;63.62;97084.84;232293;203;137285;-60
2024/01/03 14:31:21;;;;;;;3.60;1.80;;;;;;;11.86;63.49;97095.88;232471;204;152074;-62
2024/01/03 14:36:24;;;;;;;4.70;2.10;;;;;;;11.81;63.14;97097.75;232160;204;136553;-60
2024/01/03 14:41:27;;;;;;;5.80;1.90;;;;;;;11.76;63.25;97092.55;232362;201;137438;-60
2024/01/03 14:46:33;;;;;;;3.90;1.80;;;;;;;11.78;62.99;97092.50;232276;200;151514;-59
2024/01/03 14:51:36;;;;;;;4.20;2.20;;;;;;;11.76;62.47;97089.75;232310;204;137796;-63
2024/01/03 14:56:40;;;;;;;4.90;1.80;;;;;;;11.77;62.00;97090.19;232385;201;137838;-61
2024/01/03 15:01:44;;;;;;;2.70;1.60;;;;;;;11.72;61.58;97094.06;232362;204;151891;-60
2024/01/03 15:06:57;;;;;;;3.40;1.70;;;;;;;11.69;61.34;97100.34;232354;201;137565;-61
2024/01/03 15:12:01;;;;;;;3.40;1.70;;;;;;;11.67;61.08;97098.98;232196;204;137569;-60
2024/01/03 15:17:04;;;;;;;3.00;1.90;;;;;;;11.60;61.34;97094.70;232322;204;151668;-61
2024/01/03 15:22:19;;;;;;;2.30;1.50;;;;;;;11.54;61.44;97096.14;232317;204;138576;-60
2024/01/03 15:27:22;;;;;;;5.20;1.50;;;;;;;11.49;61.12;97090.02;232192;198;137555;-60
2024/01/03 15:32:26;;;;;;;3.70;1.70;;;;;;;11.50;60.93;97091.23;232326;204;151484;-60
2024/01/03 15:37:30;;;;;;;3.30;1.70;;;;;;;11.50;60.56;97092.23;232487;203;137719;-60
2024/01/03 15:42:33;;;;;;;4.00;1.80;;;;;;;11.52;60.51;97092.05;232322;197;138116;-62
2024/01/03 15:47:36;;;;;;;5.00;2.00;;;;;;;11.58;60.32;97088.09;232257;203;152443;-62
2024/01/03 15:52:40;;;;;;;5.10;2.00;;;;;;;11.59;59.89;97091.23;232234;200;136719;-63
2024/01/03 15:57:45;;;;;;;4.00;2.10;;;;;;;11.58;59.69;97085.10;232320;203;137786;-61
2024/01/03 16:02:50;;;;;;;17.90;9.70;;;;;;;11.59;59.44;97081.75;232251;201;151465;-62
2024/01/03 16:07:53;;;;;;;6.70;2.40;;;;;;;11.58;59.55;97082.93;232193;203;137896;-62
2024/01/03 16:12:56;;;;;;;5.70;2.40;;;;;;;11.63;59.52;97084.46;232028;203;136478;-58
2024/01/03 16:18:00;;;;;;;5.70;2.60;;;;;;;11.64;59.62;97085.02;232093;197;152293;-59
2024/01/03 16:23:04;;;;;;;4.70;2.40;;;;;;;11.64;59.41;97089.46;232098;200;137196;-59
2024/01/03 16:28:07;;;;;;;6.40;2.70;;;;;;;11.60;59.38;97082.72;232239;204;136367;-63
2024/01/03 16:33:12;;;;;;;5.00;2.40;;;;;;;11.59;59.17;97087.25;232227;203;152888;-61
2024/01/03 16:38:17;;;;;;;7.70;3.20;;;;;;;11.57;59.22;97089.25;232136;198;137406;-60
2024/01/03 16:43:21;;;;;;;6.60;2.50;;;;;;;11.54;59.34;97102.20;232397;203;137454;-62
2024/01/03 16:48:25;;;;;;;6.00;2.80;;;;;;;11.49;59.58;97095.77;232044;200;151873;-62
2024/01/03 16:53:28;;;;;;;5.20;2.40;;;;;;;11.42;59.99;97106.68;232184;201;138375;-59
2024/01/03 16:58:32;;;;;;;5.90;2.50;;;;;;;11.37;60.85;97107.39;232234;197;136676;-61
2024/01/03 17:03:35;;;;;;;4.90;2.20;;;;;;;11.33;61.78;97108.44;232177;200;152318;-59
2024/01/03 17:08:38;;;;;;;3.70;1.70;;;;;;;11.27;62.91;97104.10;232222;203;137323;-60
2024/01/03 17:13:41;;;;;;;4.20;1.90;;;;;;;11.17;64.03;97102.38;232280;200;136961;-59
2024/01/03 17:18:51;;;;;;;4.10;2.00;;;;;;;11.09;65.39;97094.98;232164;204;152180;-55
2024/01/03 17:23:56;;;;;;;4.90;2.20;;;;;;;11.02;66.18;97075.89;232138;200;138097;-57
2024/01/03 17:29:00;;;;;;;6.80;2.70;;;;;;;10.99;66.96;97065.80;232067;197;136839;-55
2024/01/03 17:34:04;;;;;;;6.40;2.40;;;;;;;11.03;66.91;97062.70;232116;204;152692;-60
2024/01/03 17:39:10;;;;;;;5.30;2.80;;;;;;;11.07;66.92;97060.90;232149;200;136954;-59
2024/01/03 17:44:14;;;;;;;6.20;2.70;;;;;;;11.07;67.09;97069.08;232212;203;140627;-60
2024/01/03 17:49:18;;;;;;;7.40;3.40;;;;;;;11.05;67.30;97074.94;232313;204;152870;-60
2024/01/03 17:54:22;;;;;;;8.00;3.60;;;;;;;11.00;67.41;97076.63;232125;201;142691;-62
2024/01/03 17:59:25;;;;;;;6.20;3.30;;;;;;;10.96;68.10;97064.67;232098;197;137208;-62
2024/01/03 18:04:28;;;;;;;5.60;3.50;;;;;;;10.94;68.58;97051.02;232162;203;151133;-61
2024/01/03 18:09:32;;;;;;;5.30;3.20;;;;;;;10.92;68.90;97056.30;232204;200;138407;-63
2024/01/03 18:14:35;;;;;;;6.30;3.10;;;;;;;10.95;69.06;97044.00;231850;197;139067;-60
2024/01/03 18:19:39;;;;;;;7.80;3.70;;;;;;;10.98;69.17;97028.23;232231;204;151955;-63
2024/01/03 18:24:44;;;;;;;7.20;3.80;;;;;;;10.94;69.24;97028.65;232214;197;137697;-66
2024/01/03 18:29:48;;;;;;;6.20;3.50;;;;;;;10.90;69.48;97032.02;232197;197;137565;-61
2024/01/03 18:34:51;;;;;;;6.00;3.60;;;;;;;10.89;69.73;97031.38;232153;197;151498;-62
2024/01/03 18:39:55;;;;;;;8.30;4.00;;;;;;;10.88;69.84;97032.20;232207;201;136702;-60
2024/01/03 18:44:58;;;;;;;605.30;429.60;;;;;;;10.93;70.29;97031.77;232092;201;138337;-57
2024/01/03 18:50:04;;;;;;;11.00;7.30;;;;;;;11.04;70.37;97032.50;232130;197;151388;-57
2024/01/03 18:55:09;;;;;;;8.60;4.30;;;;;;;10.99;69.96;97040.86;232376;198;141076;-54
2024/01/03 19:00:14;;;;;;;9.60;5.10;;;;;;;10.91;70.21;97047.30;232218;203;138066;-58
2024/01/03 19:05:17;;;;;;;10.40;5.60;;;;;;;10.93;70.25;97052.65;232271;203;151529;-57
2024/01/03 19:10:21;;;;;;;8.40;4.90;;;;;;;10.89;70.29;97050.73;232184;200;137344;-55
2024/01/03 19:15:24;;;;;;;10.00;6.40;;;;;;;10.77;70.58;97052.10;232100;203;137588;-55
2024/01/03 19:20:27;;;;;;;26.50;10.90;;;;;;;10.71;70.96;97049.66;231900;203;151614;-53
2024/01/03 19:25:30;;;;;;;16.40;8.90;;;;;;;10.72;70.90;97040.83;232264;204;138057;-57
2024/01/03 19:30:33;;;;;;;13.10;6.30;;;;;;;10.72;70.96;97034.34;232121;198;137233;-56
2024/01/03 19:35:37;;;;;;;304.10;206.20;;;;;;;10.72;71.38;97029.90;232043;197;151419;-53
2024/01/03 19:40:40;;;;;;;18.40;8.60;;;;;;;10.85;71.42;97033.79;232244;200;139055;-56
2024/01/03 19:45:43;;;;;;;9.70;5.70;;;;;;;10.92;70.73;97035.20;232225;204;138809;-57
2024/01/03 19:50:47;;;;;;;10.40;6.00;;;;;;;10.98;70.24;97038.41;232237;203;151448;-57
2024/01/03 19:55:53;;;;;;;11.90;6.20;;;;;;;11.04;69.83;97037.20;232372;204;138270;-56
2024/01/03 20:00:56;;;;;;;10.60;6.00;;;;;;;11.04;69.33;97035.59;232405;203;137468;-57
2024/01/03 20:05:59;;;;;;;12.50;6.20;;;;;;;11.00;69.00;97031.05;232435;200;151888;-56
2024/01/03 20:11:03;;;;;;;11.10;6.20;;;;;;;10.94;68.82;97035.73;232275;196;138577;-53
2024/01/03 20:16:06;;;;;;;10.70;5.50;;;;;;;10.86;68.05;97032.91;232345;203;137509;-57
2024/01/03 20:21:10;;;;;;;10.00;4.90;;;;;;;10.78;67.70;97031.88;232236;203;153274;-57
2024/01/03 20:26:14;;;;;;;169.60;122.80;;;;;;;10.76;67.39;97035.13;232264;203;138528;-55
2024/01/03 20:31:20;;;;;;;8.90;5.60;;;;;;;10.92;65.73;97033.45;232517;203;137207;-57
2024/01/03 20:36:23;;;;;;;4.60;2.40;;;;;;;10.95;64.69;97032.77;232374;200;152938;-52
2024/01/03 20:41:27;;;;;;;5.10;2.10;;;;;;;10.99;63.75;97033.11;232323;203;137553;-57
2024/01/03 20:46:30;;;;;;;4.00;2.00;;;;;;;11.06;63.21;97031.17;232136;200;140056;-54
2024/01/03 20:51:34;;;;;;;2.70;1.80;;;;;;;11.12;62.50;97032.40;232125;197;151350;-55
2024/01/03 20:56:45;;;;;;;4.90;1.90;;;;;;;11.16;62.71;97039.00;232159;197;137244;-54
2024/01/03 21:01:50;;;;;;;4.60;2.80;;;;;;;11.18;62.48;97035.23;232343;203;136425;-57
2024/01/03 21:06:53;;;;;;;3.40;1.80;;;;;;;11.19;62.10;97031.05;232382;204;151766;-56
2024/01/03 21:11:56;;;;;;;5.10;2.10;;;;;;;11.16;61.75;97024.16;232159;200;137411;-56
2024/01/03 21:16:59;;;;;;;3.30;1.80;;;;;;;11.17;61.66;97026.46;231926;197;137582;-53
2024/01/03 21:22:03;;;;;;;3.10;1.80;;;;;;;11.18;61.19;97025.80;231972;201;152336;-54
2024/01/03 21:27:06;;;;;;;3.40;1.90;;;;;;;11.20;61.07;97026.46;232267;200;153005;-56
2024/01/03 21:32:30;;;;;;;4.80;2.20;;;;;;;11.17;60.97;97027.64;232237;201;136925;-56
2024/01/03 21:37:33;;;;;;;3.70;1.90;;;;;;;11.17;60.71;97025.95;232375;201;151528;-56
2024/01/03 21:42:40;;;;;;;3.80;2.00;;;;;;;11.14;60.57;97023.70;232283;204;136849;-57
2024/01/03 21:47:43;;;;;;;4.00;1.90;;;;;;;11.15;60.60;97016.34;232314;200;136401;-56
2024/01/03 21:52:48;;;;;;;4.60;2.30;;;;;;;11.15;60.38;97008.85;232278;201;152326;-55
2024/01/03 21:57:54;;;;;;;4.30;2.10;;;;;;;11.14;60.33;97006.61;232254;204;137646;-54
2024/01/03 22:02:58;;;;;;;3.30;1.60;;;;;;;11.15;60.33;97009.58;232055;204;136675;-52
2024/01/03 22:08:05;;;;;;;3.40;2.10;;;;;;;11.19;60.24;97008.71;232193;203;151239;-54
2024/01/03 22:13:09;;;;;;;4.60;1.90;;;;;;;11.17;60.22;97006.70;232408;197;136700;-55
2024/01/03 22:18:12;;;;;;;4.00;1.70;;;;;;;11.14;60.15;97009.11;232110;201;138113;-55
2024/01/03 22:23:15;;;;;;;5.00;1.90;;;;;;;11.12;60.23;97009.08;232275;204;151196;-57
2024/01/03 22:28:22;;;;;;;4.10;1.90;;;;;;;11.12;60.15;97003.55;231890;198;140341;-54
2024/01/03 22:33:25;;;;;;;3.20;1.60;;;;;;;11.12;60.30;97006.79;232264;204;158359;-52
2024/01/03 22:38:29;;;;;;;3.00;1.70;;;;;;;11.10;60.19;96998.36;232278;200;151414;-57
2024/01/03 22:43:32;;;;;;;3.30;1.60;;;;;;;11.07;60.32;97001.80;232350;204;137425;-54
2024/01/03 22:48:35;;;;;;;3.80;2.00;;;;;;;11.06;60.48;97000.52;231804;204;136961;-53
2024/01/03 22:53:40;;;;;;;2.50;1.40;;;;;;;11.06;60.60;96995.66;231896;204;151310;-54
2024/01/03 22:58:43;;;;;;;4.30;1.80;;;;;;;11.07;60.63;96990.84;232200;200;137814;-53
2024/01/03 23:03:46;;;;;;;4.90;1.60;;;;;;;11.08;60.57;96989.27;232259;204;137210;-54
2024/01/03 23:08:50;;;;;;;4.00;1.70;;;;;;;11.09;60.81;96992.38;232248;204;152312;-55
2024/01/03 23:13:53;;;;;;;5.20;1.80;;;;;;;11.14;60.91;96982.31;232258;200;137536;-54
2024/01/03 23:18:56;;;;;;;3.50;1.80;;;;;;;11.18;60.83;96983.19;231897;204;137252;-55
2024/01/03 23:23:59;;;;;;;5.00;2.00;;;;;;;11.16;60.89;96984.79;232017;203;151277;-55
2024/01/03 23:29:03;;;;;;;3.50;1.90;;;;;;;11.15;60.97;96979.42;232342;200;139104;-53
2024/01/03 23:34:06;;;;;;;4.10;2.10;;;;;;;11.10;61.03;96977.23;232426;203;153717;-56
2024/01/03 23:39:09;;;;;;;4.10;2.00;;;;;;;11.03;61.16;96964.55;231909;204;151888;-55
2024/01/03 23:44:14;;;;;;;4.00;1.90;;;;;;;10.96;61.23;96963.11;232272;200;137333;-55